sensor_id;sensor_type;location;lat;lon;timestamp;temperature;humidity
64689;DHT22;62504;46.070;14.492;2023-02-15T00:01:45;2.80;99.90
64689;DHT22;62504;46.070;14.492;2023-02-15T00:04:16;2.50;99.90
64689;DHT22;62504;46.070;14.492;2023-02-15T00:06:43;2.70;99.90
64689;DHT22;62504;46.070;14.492;2023-02-15T00:09:09;2.70;99.90
64689;DHT22;62504;46.070;14.492;2023-02-15T00:11:36;2.80;99.90
64689;DHT22;62504;46.070;14.492;2023-02-15T00:16:35;2.70;99.90
64689;DHT22;62504;46.070;14.492;2023-02-15T00:19:01;2.90;99.90
64689;DHT22;62504;46.070;14.492;2023-02-15T00:21:29;2.50;99.90
64689;DHT22;62504;46.070;14.492;2023-02-15T00:24:00;2.70;99.90
64689;DHT22;62504;46.070;14.492;2023-02-15T00:26:26;2.70;99.90
64689;DHT22;62504;46.070;14.492;2023-02-15T00:28:52;2.80;99.90
64689;DHT22;62504;46.070;14.492;2023-02-15T00:31:18;2.70;99.90
64689;DHT22;62504;46.070;14.492;2023-02-15T00:33:44;2.40;99.90
64689;DHT22;62504;46.070;14.492;2023-02-15T00:36:10;2.40;99.90
64689;DHT22;62504;46.070;14.492;2023-02-15T00:38:36;2.50;99.90
64689;DHT22;62504;46.070;14.492;2023-02-15T00:41:04;2.70;99.90
64689;DHT22;62504;46.070;14.492;2023-02-15T00:43:31;2.60;99.90
64689;DHT22;62504;46.070;14.492;2023-02-15T00:45:57;2.40;99.90
64689;DHT22;62504;46.070;14.492;2023-02-15T00:48:23;2.50;99.90
64689;DHT22;62504;46.070;14.492;2023-02-15T00:50:54;2.40;99.90
64689;DHT22;62504;46.070;14.492;2023-02-15T00:53:21;2.60;99.90
64689;DHT22;62504;46.070;14.492;2023-02-15T00:55:47;2.60;99.90
64689;DHT22;62504;46.070;14.492;2023-02-15T00:58:13;2.70;99.90
64689;DHT22;62504;46.070;14.492;2023-02-15T01:00:40;2.70;99.90
64689;DHT22;62504;46.070;14.492;2023-02-15T01:03:07;2.50;99.90
64689;DHT22;62504;46.070;14.492;2023-02-15T01:05:32;2.20;99.90
64689;DHT22;62504;46.070;14.492;2023-02-15T01:07:59;2.00;99.90
64689;DHT22;62504;46.070;14.492;2023-02-15T01:10:25;2.30;99.90
64689;DHT22;62504;46.070;14.492;2023-02-15T01:12:52;2.40;99.90
64689;DHT22;62504;46.070;14.492;2023-02-15T01:15:18;2.50;99.90
64689;DHT22;62504;46.070;14.492;2023-02-15T01:17:43;2.60;99.90
64689;DHT22;62504;46.070;14.492;2023-02-15T01:20:15;2.30;99.90
64689;DHT22;62504;46.070;14.492;2023-02-15T01:22:41;2.40;99.90
64689;DHT22;62504;46.070;14.492;2023-02-15T01:25:07;2.50;99.90
64689;DHT22;62504;46.070;14.492;2023-02-15T01:27:32;2.40;99.90
64689;DHT22;62504;46.070;14.492;2023-02-15T01:29:58;2.20;99.90
64689;DHT22;62504;46.070;14.492;2023-02-15T01:32:23;1.90;99.90
64689;DHT22;62504;46.070;14.492;2023-02-15T01:34:49;2.00;99.90
64689;DHT22;62504;46.070;14.492;2023-02-15T01:37:15;2.10;99.90
64689;DHT22;62504;46.070;14.492;2023-02-15T01:39:41;2.10;99.90
64689;DHT22;62504;46.070;14.492;2023-02-15T01:42:10;1.90;99.90
64689;DHT22;62504;46.070;14.492;2023-02-15T01:44:51;1.70;99.90
64689;DHT22;62504;46.070;14.492;2023-02-15T01:47:40;1.60;99.90
64689;DHT22;62504;46.070;14.492;2023-02-15T01:50:18;1.40;99.90
64689;DHT22;62504;46.070;14.492;2023-02-15T01:52:57;1.80;99.90
64689;DHT22;62504;46.070;14.492;2023-02-15T01:57:51;1.90;99.90
64689;DHT22;62504;46.070;14.492;2023-02-15T02:00:17;2.00;99.90
64689;DHT22;62504;46.070;14.492;2023-02-15T02:02:45;2.10;99.90
64689;DHT22;62504;46.070;14.492;2023-02-15T02:05:12;2.00;99.90
64689;DHT22;62504;46.070;14.492;2023-02-15T02:07:41;1.80;99.90
64689;DHT22;62504;46.070;14.492;2023-02-15T02:10:10;1.70;99.90
64689;DHT22;62504;46.070;14.492;2023-02-15T02:12:37;2.10;99.90
64689;DHT22;62504;46.070;14.492;2023-02-15T02:15:04;2.10;99.90
64689;DHT22;62504;46.070;14.492;2023-02-15T02:34:30;1.80;99.90
64689;DHT22;62504;46.070;14.492;2023-02-15T02:39:55;1.90;99.90
64689;DHT22;62504;46.070;14.492;2023-02-15T02:45:15;2.10;99.90
64689;DHT22;62504;46.070;14.492;2023-02-15T02:47:55;1.80;99.90
64689;DHT22;62504;46.070;14.492;2023-02-15T02:50:25;1.50;99.90
64689;DHT22;62504;46.070;14.492;2023-02-15T02:52:53;1.30;99.90
64689;DHT22;62504;46.070;14.492;2023-02-15T02:55:40;1.60;99.90
64689;DHT22;62504;46.070;14.492;2023-02-15T02:58:19;1.80;99.90
64689;DHT22;62504;46.070;14.492;2023-02-15T03:03:23;1.70;99.90
64689;DHT22;62504;46.070;14.492;2023-02-15T03:05:57;1.80;99.90
64689;DHT22;62504;46.070;14.492;2023-02-15T03:08:27;1.50;99.90
64689;DHT22;62504;46.070;14.492;2023-02-15T03:11:00;1.60;99.90
64689;DHT22;62504;46.070;14.492;2023-02-15T03:13:27;1.50;99.90
64689;DHT22;62504;46.070;14.492;2023-02-15T03:15:54;1.60;99.90
64689;DHT22;62504;46.070;14.492;2023-02-15T03:18:44;1.50;99.90
64689;DHT22;62504;46.070;14.492;2023-02-15T03:21:24;1.30;99.90
64689;DHT22;62504;46.070;14.492;2023-02-15T03:23:59;1.20;99.90
64689;DHT22;62504;46.070;14.492;2023-02-15T03:26:27;1.40;99.90
64689;DHT22;62504;46.070;14.492;2023-02-15T03:28:55;1.30;99.90
64689;DHT22;62504;46.070;14.492;2023-02-15T03:31:23;1.20;99.90
64689;DHT22;62504;46.070;14.492;2023-02-15T03:34:03;1.20;99.90
64689;DHT22;62504;46.070;14.492;2023-02-15T03:36:41;1.20;99.90
64689;DHT22;62504;46.070;14.492;2023-02-15T03:42:33;1.40;99.90
64689;DHT22;62504;46.070;14.492;2023-02-15T03:47:24;1.60;99.90
64689;DHT22;62504;46.070;14.492;2023-02-15T03:49:56;1.50;99.90
64689;DHT22;62504;46.070;14.492;2023-02-15T03:52:25;1.40;99.90
64689;DHT22;62504;46.070;14.492;2023-02-15T03:54:52;1.40;99.90
64689;DHT22;62504;46.070;14.492;2023-02-15T03:57:26;1.60;99.90
64689;DHT22;62504;46.070;14.492;2023-02-15T04:00:19;1.40;99.90
64689;DHT22;62504;46.070;14.492;2023-02-15T04:03:20;1.30;99.90
64689;DHT22;62504;46.070;14.492;2023-02-15T04:05:48;1.10;99.90
64689;DHT22;62504;46.070;14.492;2023-02-15T04:08:14;1.20;99.90
64689;DHT22;62504;46.070;14.492;2023-02-15T04:10:40;1.20;99.90
64689;DHT22;62504;46.070;14.492;2023-02-15T04:13:23;1.30;99.90
64689;DHT22;62504;46.070;14.492;2023-02-15T04:15:50;1.20;99.90
64689;DHT22;62504;46.070;14.492;2023-02-15T04:18:36;1.20;99.90
64689;DHT22;62504;46.070;14.492;2023-02-15T04:21:23;1.00;99.90
64689;DHT22;62504;46.070;14.492;2023-02-15T04:24:08;1.00;99.90
64689;DHT22;62504;46.070;14.492;2023-02-15T04:26:52;1.00;99.90
64689;DHT22;62504;46.070;14.492;2023-02-15T04:29:19;1.20;99.90
64689;DHT22;62504;46.070;14.492;2023-02-15T04:31:45;1.40;99.90
64689;DHT22;62504;46.070;14.492;2023-02-15T04:34:11;1.20;99.90
64689;DHT22;62504;46.070;14.492;2023-02-15T04:36:38;1.30;99.90
64689;DHT22;62504;46.070;14.492;2023-02-15T04:39:05;1.30;99.90
64689;DHT22;62504;46.070;14.492;2023-02-15T04:41:31;1.40;99.90
64689;DHT22;62504;46.070;14.492;2023-02-15T04:43:57;1.40;99.90
64689;DHT22;62504;46.070;14.492;2023-02-15T04:46:26;1.40;99.90
64689;DHT22;62504;46.070;14.492;2023-02-15T04:48:51;1.50;99.90
64689;DHT22;62504;46.070;14.492;2023-02-15T04:51:17;1.50;99.90
64689;DHT22;62504;46.070;14.492;2023-02-15T04:53:43;1.40;99.90
64689;DHT22;62504;46.070;14.492;2023-02-15T04:56:08;1.40;99.90
64689;DHT22;62504;46.070;14.492;2023-02-15T04:58:34;1.40;99.90
64689;DHT22;62504;46.070;14.492;2023-02-15T05:01:00;1.20;99.90
64689;DHT22;62504;46.070;14.492;2023-02-15T05:03:26;1.30;99.90
64689;DHT22;62504;46.070;14.492;2023-02-15T05:05:52;1.10;99.90
64689;DHT22;62504;46.070;14.492;2023-02-15T05:08:17;1.20;99.90
64689;DHT22;62504;46.070;14.492;2023-02-15T05:10:43;1.10;99.90
64689;DHT22;62504;46.070;14.492;2023-02-15T05:13:09;1.20;99.90
64689;DHT22;62504;46.070;14.492;2023-02-15T05:15:34;1.30;99.90
64689;DHT22;62504;46.070;14.492;2023-02-15T05:18:00;1.50;99.90
64689;DHT22;62504;46.070;14.492;2023-02-15T05:20:27;1.40;99.90
64689;DHT22;62504;46.070;14.492;2023-02-15T05:22:55;1.20;99.90
64689;DHT22;62504;46.070;14.492;2023-02-15T05:25:21;1.10;99.90
64689;DHT22;62504;46.070;14.492;2023-02-15T05:28:09;1.00;99.90
64689;DHT22;62504;46.070;14.492;2023-02-15T05:30:57;1.00;99.90
64689;DHT22;62504;46.070;14.492;2023-02-15T05:33:24;0.90;99.90
64689;DHT22;62504;46.070;14.492;2023-02-15T05:35:50;1.10;99.90
64689;DHT22;62504;46.070;14.492;2023-02-15T05:38:16;1.20;99.90
64689;DHT22;62504;46.070;14.492;2023-02-15T05:40:44;1.30;99.90
64689;DHT22;62504;46.070;14.492;2023-02-15T05:43:10;1.40;99.90
64689;DHT22;62504;46.070;14.492;2023-02-15T05:45:35;1.40;99.90
64689;DHT22;62504;46.070;14.492;2023-02-15T05:48:01;1.40;99.90
64689;DHT22;62504;46.070;14.492;2023-02-15T05:50:27;1.40;99.90
64689;DHT22;62504;46.070;14.492;2023-02-15T05:52:52;1.50;99.90
64689;DHT22;62504;46.070;14.492;2023-02-15T05:55:18;1.70;99.90
64689;DHT22;62504;46.070;14.492;2023-02-15T05:57:44;1.40;99.90
64689;DHT22;62504;46.070;14.492;2023-02-15T06:00:11;1.40;99.90
64689;DHT22;62504;46.070;14.492;2023-02-15T06:02:37;1.50;99.90
64689;DHT22;62504;46.070;14.492;2023-02-15T06:05:04;1.50;99.90
64689;DHT22;62504;46.070;14.492;2023-02-15T06:07:31;1.60;99.90
64689;DHT22;62504;46.070;14.492;2023-02-15T06:09:56;1.50;99.90
64689;DHT22;62504;46.070;14.492;2023-02-15T06:12:22;1.70;99.90
64689;DHT22;62504;46.070;14.492;2023-02-15T06:14:48;1.70;99.90
64689;DHT22;62504;46.070;14.492;2023-02-15T06:17:14;1.50;99.90
64689;DHT22;62504;46.070;14.492;2023-02-15T06:19:39;1.60;99.90
64689;DHT22;62504;46.070;14.492;2023-02-15T06:22:05;1.70;99.90
64689;DHT22;62504;46.070;14.492;2023-02-15T06:24:32;1.80;99.90
64689;DHT22;62504;46.070;14.492;2023-02-15T06:26:57;2.00;99.90
64689;DHT22;62504;46.070;14.492;2023-02-15T06:29:23;2.10;99.90
64689;DHT22;62504;46.070;14.492;2023-02-15T06:31:49;1.90;99.90
64689;DHT22;62504;46.070;14.492;2023-02-15T06:34:15;2.10;99.90
64689;DHT22;62504;46.070;14.492;2023-02-15T06:36:41;2.10;99.90
64689;DHT22;62504;46.070;14.492;2023-02-15T06:39:07;1.90;99.90
64689;DHT22;62504;46.070;14.492;2023-02-15T06:41:32;1.90;99.90
64689;DHT22;62504;46.070;14.492;2023-02-15T06:43:58;1.90;99.90
64689;DHT22;62504;46.070;14.492;2023-02-15T06:46:24;1.90;99.90
64689;DHT22;62504;46.070;14.492;2023-02-15T06:48:49;1.90;99.90
64689;DHT22;62504;46.070;14.492;2023-02-15T06:51:15;1.80;99.90
64689;DHT22;62504;46.070;14.492;2023-02-15T06:53:41;1.80;99.90
64689;DHT22;62504;46.070;14.492;2023-02-15T06:56:09;1.70;99.90
64689;DHT22;62504;46.070;14.492;2023-02-15T06:58:36;1.80;99.90
64689;DHT22;62504;46.070;14.492;2023-02-15T07:01:02;1.70;99.90
64689;DHT22;62504;46.070;14.492;2023-02-15T07:03:29;1.80;99.90
64689;DHT22;62504;46.070;14.492;2023-02-15T07:05:56;1.90;99.90
64689;DHT22;62504;46.070;14.492;2023-02-15T07:08:22;1.90;99.90
64689;DHT22;62504;46.070;14.492;2023-02-15T07:10:49;1.90;99.90
64689;DHT22;62504;46.070;14.492;2023-02-15T07:13:15;1.90;99.90
64689;DHT22;62504;46.070;14.492;2023-02-15T07:15:41;1.80;99.90
64689;DHT22;62504;46.070;14.492;2023-02-15T07:18:06;1.80;99.90
64689;DHT22;62504;46.070;14.492;2023-02-15T07:20:32;1.80;99.90
64689;DHT22;62504;46.070;14.492;2023-02-15T07:23:01;1.90;99.90
64689;DHT22;62504;46.070;14.492;2023-02-15T07:25:27;1.80;99.90
64689;DHT22;62504;46.070;14.492;2023-02-15T07:28:00;1.50;99.90
64689;DHT22;62504;46.070;14.492;2023-02-15T07:30:27;1.10;99.90
64689;DHT22;62504;46.070;14.492;2023-02-15T07:32:59;1.10;99.90
64689;DHT22;62504;46.070;14.492;2023-02-15T07:35:51;0.80;99.90
64689;DHT22;62504;46.070;14.492;2023-02-15T07:38:17;1.20;99.90
64689;DHT22;62504;46.070;14.492;2023-02-15T07:40:44;1.10;99.90
64689;DHT22;62504;46.070;14.492;2023-02-15T07:43:10;1.20;99.90
64689;DHT22;62504;46.070;14.492;2023-02-15T07:45:35;1.40;99.90
64689;DHT22;62504;46.070;14.492;2023-02-15T07:48:02;1.60;99.90
64689;DHT22;62504;46.070;14.492;2023-02-15T07:50:28;1.20;99.90
64689;DHT22;62504;46.070;14.492;2023-02-15T07:52:54;1.00;99.90
64689;DHT22;62504;46.070;14.492;2023-02-15T07:55:20;1.10;99.90
64689;DHT22;62504;46.070;14.492;2023-02-15T07:57:47;1.10;99.90
64689;DHT22;62504;46.070;14.492;2023-02-15T08:00:14;1.30;99.90
64689;DHT22;62504;46.070;14.492;2023-02-15T08:02:41;1.40;99.90
64689;DHT22;62504;46.070;14.492;2023-02-15T08:05:07;1.40;99.90
64689;DHT22;62504;46.070;14.492;2023-02-15T08:07:33;1.50;99.90
64689;DHT22;62504;46.070;14.492;2023-02-15T08:09:58;1.50;99.90
64689;DHT22;62504;46.070;14.492;2023-02-15T08:12:26;1.70;99.90
64689;DHT22;62504;46.070;14.492;2023-02-15T08:14:52;2.10;99.90
64689;DHT22;62504;46.070;14.492;2023-02-15T08:17:18;2.30;99.90
64689;DHT22;62504;46.070;14.492;2023-02-15T08:19:44;2.30;99.90
64689;DHT22;62504;46.070;14.492;2023-02-15T08:22:12;2.30;99.90
64689;DHT22;62504;46.070;14.492;2023-02-15T08:24:38;2.40;99.90
64689;DHT22;62504;46.070;14.492;2023-02-15T08:27:05;2.30;99.90
64689;DHT22;62504;46.070;14.492;2023-02-15T08:29:31;2.40;99.90
64689;DHT22;62504;46.070;14.492;2023-02-15T08:32:02;2.10;99.90
64689;DHT22;62504;46.070;14.492;2023-02-15T08:34:33;1.60;99.90
64689;DHT22;62504;46.070;14.492;2023-02-15T08:36:59;1.90;99.90
64689;DHT22;62504;46.070;14.492;2023-02-15T08:39:26;2.10;99.90
64689;DHT22;62504;46.070;14.492;2023-02-15T08:41:51;2.20;99.90
64689;DHT22;62504;46.070;14.492;2023-02-15T08:44:18;2.30;99.90
64689;DHT22;62504;46.070;14.492;2023-02-15T08:46:45;2.20;99.90
64689;DHT22;62504;46.070;14.492;2023-02-15T08:49:19;2.40;99.90
64689;DHT22;62504;46.070;14.492;2023-02-15T08:51:45;2.50;99.90
64689;DHT22;62504;46.070;14.492;2023-02-15T08:54:17;2.60;99.90
64689;DHT22;62504;46.070;14.492;2023-02-15T08:56:45;2.60;99.90
64689;DHT22;62504;46.070;14.492;2023-02-15T08:59:16;2.70;99.90
64689;DHT22;62504;46.070;14.492;2023-02-15T09:01:43;2.50;99.90
64689;DHT22;62504;46.070;14.492;2023-02-15T09:04:09;2.70;99.90
64689;DHT22;62504;46.070;14.492;2023-02-15T09:06:36;2.60;99.90
64689;DHT22;62504;46.070;14.492;2023-02-15T09:09:03;2.50;99.90
64689;DHT22;62504;46.070;14.492;2023-02-15T09:11:37;2.70;99.90
64689;DHT22;62504;46.070;14.492;2023-02-15T09:14:09;2.80;99.90
64689;DHT22;62504;46.070;14.492;2023-02-15T09:16:37;2.90;99.90
64689;DHT22;62504;46.070;14.492;2023-02-15T09:19:04;3.00;99.90
64689;DHT22;62504;46.070;14.492;2023-02-15T09:21:31;3.00;99.90
64689;DHT22;62504;46.070;14.492;2023-02-15T09:23:59;3.10;99.90
64689;DHT22;62504;46.070;14.492;2023-02-15T09:26:26;2.80;99.90
64689;DHT22;62504;46.070;14.492;2023-02-15T09:28:53;2.90;99.90
64689;DHT22;62504;46.070;14.492;2023-02-15T09:31:28;3.00;99.90
64689;DHT22;62504;46.070;14.492;2023-02-15T09:33:54;3.00;99.90
64689;DHT22;62504;46.070;14.492;2023-02-15T09:36:21;3.20;99.90
64689;DHT22;62504;46.070;14.492;2023-02-15T09:38:52;3.10;99.90
64689;DHT22;62504;46.070;14.492;2023-02-15T09:55:14;3.70;99.90
64689;DHT22;62504;46.070;14.492;2023-02-15T10:28:16;4.30;99.90
64689;DHT22;62504;46.070;14.492;2023-02-15T10:49:23;5.20;99.90
64689;DHT22;62504;46.070;14.492;2023-02-15T10:52:02;5.40;99.90
64689;DHT22;62504;46.070;14.492;2023-02-15T10:54:53;5.70;99.90
64689;DHT22;62504;46.070;14.492;2023-02-15T11:05:57;5.50;99.90
64689;DHT22;62504;46.070;14.492;2023-02-15T11:08:26;6.00;99.90
64689;DHT22;62504;46.070;14.492;2023-02-15T11:11:01;5.80;99.90
64689;DHT22;62504;46.070;14.492;2023-02-15T11:13:31;5.90;99.90
64689;DHT22;62504;46.070;14.492;2023-02-15T11:16:21;5.70;99.90
64689;DHT22;62504;46.070;14.492;2023-02-15T11:19:03;5.70;99.90
64689;DHT22;62504;46.070;14.492;2023-02-15T11:21:39;6.00;99.90
64689;DHT22;62504;46.070;14.492;2023-02-15T11:24:14;6.20;99.90
64689;DHT22;62504;46.070;14.492;2023-02-15T11:29:50;6.10;99.90
64689;DHT22;62504;46.070;14.492;2023-02-15T11:37:46;6.10;99.90
64689;DHT22;62504;46.070;14.492;2023-02-15T11:42:48;5.90;99.90
64689;DHT22;62504;46.070;14.492;2023-02-15T11:47:43;6.30;99.90
64689;DHT22;62504;46.070;14.492;2023-02-15T11:50:18;6.60;99.90
64689;DHT22;62504;46.070;14.492;2023-02-15T11:52:48;6.40;99.90
64689;DHT22;62504;46.070;14.492;2023-02-15T11:55:19;6.60;99.90
64689;DHT22;62504;46.070;14.492;2023-02-15T11:57:54;6.60;99.90
64689;DHT22;62504;46.070;14.492;2023-02-15T12:00:43;6.60;99.90
64689;DHT22;62504;46.070;14.492;2023-02-15T12:03:29;6.40;99.90
64689;DHT22;62504;46.070;14.492;2023-02-15T12:06:04;6.40;99.90
64689;DHT22;62504;46.070;14.492;2023-02-15T12:08:39;6.70;99.90
64689;DHT22;62504;46.070;14.492;2023-02-15T12:11:17;6.70;99.90
64689;DHT22;62504;46.070;14.492;2023-02-15T12:14:01;6.60;99.90
64689;DHT22;62504;46.070;14.492;2023-02-15T12:16:29;6.50;99.90
64689;DHT22;62504;46.070;14.492;2023-02-15T12:18:59;6.50;99.90
64689;DHT22;62504;46.070;14.492;2023-02-15T12:21:30;6.40;99.90
64689;DHT22;62504;46.070;14.492;2023-02-15T12:24:17;6.50;99.90
64689;DHT22;62504;46.070;14.492;2023-02-15T12:26:43;6.70;99.90
64689;DHT22;62504;46.070;14.492;2023-02-15T12:29:16;6.70;99.90
64689;DHT22;62504;46.070;14.492;2023-02-15T12:31:47;6.80;99.90
64689;DHT22;62504;46.070;14.492;2023-02-15T12:34:31;6.90;99.90
64689;DHT22;62504;46.070;14.492;2023-02-15T12:37:01;7.10;99.90
64689;DHT22;62504;46.070;14.492;2023-02-15T12:39:31;7.20;99.90
64689;DHT22;62504;46.070;14.492;2023-02-15T12:41:59;7.30;99.90
64689;DHT22;62504;46.070;14.492;2023-02-15T12:44:34;7.10;99.90
64689;DHT22;62504;46.070;14.492;2023-02-15T12:47:01;7.00;99.90
64689;DHT22;62504;46.070;14.492;2023-02-15T12:49:32;7.10;99.90
64689;DHT22;62504;46.070;14.492;2023-02-15T12:52:00;7.30;99.90
64689;DHT22;62504;46.070;14.492;2023-02-15T12:54:40;7.40;99.90
64689;DHT22;62504;46.070;14.492;2023-02-15T12:57:23;7.40;99.90
64689;DHT22;62504;46.070;14.492;2023-02-15T12:59:58;7.40;99.90
64689;DHT22;62504;46.070;14.492;2023-02-15T13:02:44;7.30;99.90
64689;DHT22;62504;46.070;14.492;2023-02-15T13:05:35;7.60;99.90
64689;DHT22;62504;46.070;14.492;2023-02-15T13:08:13;7.50;99.90
64689;DHT22;62504;46.070;14.492;2023-02-15T13:13:10;7.70;99.90
64689;DHT22;62504;46.070;14.492;2023-02-15T13:15:38;7.70;99.90
64689;DHT22;62504;46.070;14.492;2023-02-15T13:18:10;7.60;99.90
64689;DHT22;62504;46.070;14.492;2023-02-15T13:20:38;7.60;99.90
64689;DHT22;62504;46.070;14.492;2023-02-15T13:23:15;7.80;99.90
64689;DHT22;62504;46.070;14.492;2023-02-15T13:25:47;7.70;99.90
64689;DHT22;62504;46.070;14.492;2023-02-15T13:28:16;7.60;99.90
64689;DHT22;62504;46.070;14.492;2023-02-15T13:30:45;7.70;99.90
64689;DHT22;62504;46.070;14.492;2023-02-15T13:35:55;7.90;99.90
64689;DHT22;62504;46.070;14.492;2023-02-15T13:41:23;7.90;99.90
64689;DHT22;62504;46.070;14.492;2023-02-15T13:52:18;8.00;99.90
64689;DHT22;62504;46.070;14.492;2023-02-15T14:00:56;8.40;99.90
64689;DHT22;62504;46.070;14.492;2023-02-15T14:19:48;8.20;99.90
64689;DHT22;62504;46.070;14.492;2023-02-15T14:22:31;8.30;99.90
64689;DHT22;62504;46.070;14.492;2023-02-15T14:30:20;8.40;99.90
64689;DHT22;62504;46.070;14.492;2023-02-15T14:32:51;8.40;99.90
64689;DHT22;62504;46.070;14.492;2023-02-15T14:35:23;8.40;99.90
64689;DHT22;62504;46.070;14.492;2023-02-15T14:40:44;8.30;99.90
64689;DHT22;62504;46.070;14.492;2023-02-15T14:46:16;8.50;99.90
64689;DHT22;62504;46.070;14.492;2023-02-15T14:48:48;8.50;99.90
64689;DHT22;62504;46.070;14.492;2023-02-15T14:57:20;8.50;99.90
64689;DHT22;62504;46.070;14.492;2023-02-15T14:59:40;8.60;99.90
64689;DHT22;62504;46.070;14.492;2023-02-15T15:04:44;8.60;99.90
64689;DHT22;62504;46.070;14.492;2023-02-15T15:07:19;8.50;99.90
64689;DHT22;62504;46.070;14.492;2023-02-15T15:09:57;8.50;99.90
64689;DHT22;62504;46.070;14.492;2023-02-15T15:14:51;8.50;99.90
64689;DHT22;62504;46.070;14.492;2023-02-15T15:17:56;8.60;99.90
64689;DHT22;62504;46.070;14.492;2023-02-15T15:25:45;8.70;99.90
64689;DHT22;62504;46.070;14.492;2023-02-15T15:43:10;8.70;99.90
64689;DHT22;62504;46.070;14.492;2023-02-15T15:48:37;8.50;99.90
64689;DHT22;62504;46.070;14.492;2023-02-15T15:53:51;8.30;99.90
64689;DHT22;62504;46.070;14.492;2023-02-15T15:56:25;8.20;99.90
64689;DHT22;62504;46.070;14.492;2023-02-15T15:59:00;8.20;99.90
64689;DHT22;62504;46.070;14.492;2023-02-15T16:01:28;8.20;99.90
64689;DHT22;62504;46.070;14.492;2023-02-15T16:03:57;8.10;99.90
64689;DHT22;62504;46.070;14.492;2023-02-15T16:06:31;8.10;99.90
64689;DHT22;62504;46.070;14.492;2023-02-15T16:09:19;8.00;99.90
64689;DHT22;62504;46.070;14.492;2023-02-15T16:11:51;8.00;99.90
64689;DHT22;62504;46.070;14.492;2023-02-15T16:16:54;7.90;99.90
64689;DHT22;62504;46.070;14.492;2023-02-15T16:19:27;7.90;99.90
64689;DHT22;62504;46.070;14.492;2023-02-15T16:21:54;7.80;99.90
64689;DHT22;62504;46.070;14.492;2023-02-15T16:24:28;7.80;99.90
64689;DHT22;62504;46.070;14.492;2023-02-15T16:29:49;7.70;99.90
64689;DHT22;62504;46.070;14.492;2023-02-15T16:32:21;7.70;99.90
64689;DHT22;62504;46.070;14.492;2023-02-15T16:35:01;7.70;99.90
64689;DHT22;62504;46.070;14.492;2023-02-15T16:37:32;7.70;99.90
64689;DHT22;62504;46.070;14.492;2023-02-15T16:39:59;7.70;99.90
64689;DHT22;62504;46.070;14.492;2023-02-15T16:42:25;7.70;99.90
64689;DHT22;62504;46.070;14.492;2023-02-15T16:45:12;7.60;99.90
64689;DHT22;62504;46.070;14.492;2023-02-15T16:47:42;7.50;99.90
64689;DHT22;62504;46.070;14.492;2023-02-15T16:50:18;7.40;99.90
64689;DHT22;62504;46.070;14.492;2023-02-15T16:52:45;7.20;99.90
64689;DHT22;62504;46.070;14.492;2023-02-15T16:55:27;7.20;99.90
64689;DHT22;62504;46.070;14.492;2023-02-15T16:58:00;7.10;99.90
64689;DHT22;62504;46.070;14.492;2023-02-15T17:00:31;7.00;99.90
64689;DHT22;62504;46.070;14.492;2023-02-15T17:08:26;6.90;99.90
64689;DHT22;62504;46.070;14.492;2023-02-15T17:13:27;6.70;99.90
64689;DHT22;62504;46.070;14.492;2023-02-15T17:18:31;6.60;99.90
64689;DHT22;62504;46.070;14.492;2023-02-15T17:21:01;6.50;99.90
64689;DHT22;62504;46.070;14.492;2023-02-15T17:23:40;6.60;99.90
64689;DHT22;62504;46.070;14.492;2023-02-15T17:26:33;6.40;99.90
64689;DHT22;62504;46.070;14.492;2023-02-15T17:31:30;6.40;99.90
64689;DHT22;62504;46.070;14.492;2023-02-15T17:33:58;6.30;99.90
64689;DHT22;62504;46.070;14.492;2023-02-15T17:36:26;6.30;99.90
64689;DHT22;62504;46.070;14.492;2023-02-15T17:41:33;6.20;99.90
64689;DHT22;62504;46.070;14.492;2023-02-15T17:44:00;6.10;99.90
64689;DHT22;62504;46.070;14.492;2023-02-15T17:46:29;6.20;99.90
64689;DHT22;62504;46.070;14.492;2023-02-15T17:48:57;6.20;99.90
64689;DHT22;62504;46.070;14.492;2023-02-15T17:51:23;6.10;99.90
64689;DHT22;62504;46.070;14.492;2023-02-15T17:53:49;6.10;99.90
64689;DHT22;62504;46.070;14.492;2023-02-15T17:56:34;6.10;99.90
64689;DHT22;62504;46.070;14.492;2023-02-15T17:59:00;6.00;99.90
64689;DHT22;62504;46.070;14.492;2023-02-15T18:01:26;6.00;99.90
64689;DHT22;62504;46.070;14.492;2023-02-15T18:04:14;6.00;99.90
64689;DHT22;62504;46.070;14.492;2023-02-15T18:06:59;5.90;99.90
64689;DHT22;62504;46.070;14.492;2023-02-15T18:09:43;5.70;99.90
64689;DHT22;62504;46.070;14.492;2023-02-15T18:12:30;5.50;99.90
64689;DHT22;62504;46.070;14.492;2023-02-15T18:14:56;5.60;99.90
64689;DHT22;62504;46.070;14.492;2023-02-15T18:17:31;5.50;99.90
64689;DHT22;62504;46.070;14.492;2023-02-15T18:19:57;5.60;99.90
64689;DHT22;62504;46.070;14.492;2023-02-15T18:22:23;5.40;99.90
64689;DHT22;62504;46.070;14.492;2023-02-15T18:24:49;5.30;99.90
64689;DHT22;62504;46.070;14.492;2023-02-15T18:27:15;5.30;99.90
64689;DHT22;62504;46.070;14.492;2023-02-15T18:29:41;5.40;99.90
64689;DHT22;62504;46.070;14.492;2023-02-15T18:32:15;5.40;99.90
64689;DHT22;62504;46.070;14.492;2023-02-15T18:34:42;5.30;99.90
64689;DHT22;62504;46.070;14.492;2023-02-15T18:37:18;5.30;99.90
64689;DHT22;62504;46.070;14.492;2023-02-15T18:39:46;5.30;99.90
64689;DHT22;62504;46.070;14.492;2023-02-15T18:42:27;5.10;99.90
64689;DHT22;62504;46.070;14.492;2023-02-15T18:44:59;5.00;99.90
64689;DHT22;62504;46.070;14.492;2023-02-15T18:47:25;5.10;99.90
64689;DHT22;62504;46.070;14.492;2023-02-15T18:49:51;5.10;99.90
64689;DHT22;62504;46.070;14.492;2023-02-15T18:52:19;5.00;99.90
64689;DHT22;62504;46.070;14.492;2023-02-15T18:54:46;5.00;99.90
64689;DHT22;62504;46.070;14.492;2023-02-15T18:57:14;5.00;99.90
64689;DHT22;62504;46.070;14.492;2023-02-15T18:59:40;5.10;99.90
64689;DHT22;62504;46.070;14.492;2023-02-15T19:02:17;5.20;99.90
64689;DHT22;62504;46.070;14.492;2023-02-15T19:04:44;5.00;99.90
64689;DHT22;62504;46.070;14.492;2023-02-15T19:07:31;5.00;99.90
64689;DHT22;62504;46.070;14.492;2023-02-15T19:09:59;5.00;99.90
64689;DHT22;62504;46.070;14.492;2023-02-15T19:12:27;5.00;99.90
64689;DHT22;62504;46.070;14.492;2023-02-15T19:14:53;5.00;99.90
64689;DHT22;62504;46.070;14.492;2023-02-15T19:17:21;4.90;99.90
64689;DHT22;62504;46.070;14.492;2023-02-15T19:19:47;4.70;99.90
64689;DHT22;62504;46.070;14.492;2023-02-15T19:22:18;4.50;99.90
64689;DHT22;62504;46.070;14.492;2023-02-15T19:24:46;4.40;99.90
64689;DHT22;62504;46.070;14.492;2023-02-15T19:29:49;4.50;99.90
64689;DHT22;62504;46.070;14.492;2023-02-15T19:32:16;4.60;99.90
64689;DHT22;62504;46.070;14.492;2023-02-15T19:34:41;4.70;99.90
64689;DHT22;62504;46.070;14.492;2023-02-15T19:37:24;4.70;99.90
64689;DHT22;62504;46.070;14.492;2023-02-15T19:39:50;4.70;99.90
64689;DHT22;62504;46.070;14.492;2023-02-15T19:42:21;4.60;99.90